sensor_id;sensor_type;location;lat;lon;timestamp;temperature;humidity
20432;DHT22;10375;49.136;10.366;2024-01-25T00:00:01;7.40;99.90
20432;DHT22;10375;49.136;10.366;2024-01-25T00:02:35;7.50;99.90
20432;DHT22;10375;49.136;10.366;2024-01-25T00:05:08;7.50;99.90
20432;DHT22;10375;49.136;10.366;2024-01-25T00:07:50;7.50;99.90
20432;DHT22;10375;49.136;10.366;2024-01-25T00:10:19;7.50;99.90
20432;DHT22;10375;49.136;10.366;2024-01-25T00:12:47;7.50;99.90
20432;DHT22;10375;49.136;10.366;2024-01-25T00:15:17;7.50;99.90
20432;DHT22;10375;49.136;10.366;2024-01-25T00:17:48;7.50;99.90
20432;DHT22;10375;49.136;10.366;2024-01-25T00:20:21;7.60;99.90
20432;DHT22;10375;49.136;10.366;2024-01-25T00:22:51;7.50;99.90
20432;DHT22;10375;49.136;10.366;2024-01-25T00:25:20;7.60;99.90
20432;DHT22;10375;49.136;10.366;2024-01-25T00:27:48;7.60;99.90
20432;DHT22;10375;49.136;10.366;2024-01-25T00:30:21;7.60;99.90
20432;DHT22;10375;49.136;10.366;2024-01-25T00:32:51;7.60;99.90
20432;DHT22;10375;49.136;10.366;2024-01-25T00:35:26;7.60;99.90
20432;DHT22;10375;49.136;10.366;2024-01-25T00:37:54;7.60;99.90
20432;DHT22;10375;49.136;10.366;2024-01-25T00:40:22;7.60;99.90
20432;DHT22;10375;49.136;10.366;2024-01-25T00:42:50;7.60;99.90
20432;DHT22;10375;49.136;10.366;2024-01-25T00:45:28;7.60;99.90
20432;DHT22;10375;49.136;10.366;2024-01-25T00:47:55;7.60;99.90
20432;DHT22;10375;49.136;10.366;2024-01-25T00:50:27;7.50;99.90
20432;DHT22;10375;49.136;10.366;2024-01-25T00:52:56;7.50;99.90
20432;DHT22;10375;49.136;10.366;2024-01-25T00:55:25;7.50;99.90
20432;DHT22;10375;49.136;10.366;2024-01-25T00:57:56;7.50;99.90
20432;DHT22;10375;49.136;10.366;2024-01-25T01:00:28;7.50;99.90
20432;DHT22;10375;49.136;10.366;2024-01-25T01:03:02;7.60;99.90
20432;DHT22;10375;49.136;10.366;2024-01-25T01:05:37;7.60;99.90
20432;DHT22;10375;49.136;10.366;2024-01-25T01:08:09;7.60;99.90
20432;DHT22;10375;49.136;10.366;2024-01-25T01:10:40;7.60;99.90
20432;DHT22;10375;49.136;10.366;2024-01-25T01:13:10;7.60;99.90
20432;DHT22;10375;49.136;10.366;2024-01-25T01:15:39;7.60;99.90
20432;DHT22;10375;49.136;10.366;2024-01-25T01:18:09;7.50;99.90
20432;DHT22;10375;49.136;10.366;2024-01-25T01:20:38;7.50;99.90
20432;DHT22;10375;49.136;10.366;2024-01-25T01:23:05;7.50;99.90
20432;DHT22;10375;49.136;10.366;2024-01-25T01:25:35;7.50;99.90
20432;DHT22;10375;49.136;10.366;2024-01-25T01:28:07;7.50;99.90
20432;DHT22;10375;49.136;10.366;2024-01-25T01:30:35;7.50;99.90
20432;DHT22;10375;49.136;10.366;2024-01-25T01:33:03;7.50;99.90
20432;DHT22;10375;49.136;10.366;2024-01-25T01:35:31;7.50;99.90
20432;DHT22;10375;49.136;10.366;2024-01-25T01:38:01;7.50;99.90
20432;DHT22;10375;49.136;10.366;2024-01-25T01:40:44;7.50;99.90
20432;DHT22;10375;49.136;10.366;2024-01-25T01:43:20;7.50;99.90
20432;DHT22;10375;49.136;10.366;2024-01-25T01:45:50;7.50;99.90
20432;DHT22;10375;49.136;10.366;2024-01-25T01:48:19;7.40;99.90
20432;DHT22;10375;49.136;10.366;2024-01-25T01:50:47;7.40;99.90
20432;DHT22;10375;49.136;10.366;2024-01-25T01:53:16;7.40;99.90
20432;DHT22;10375;49.136;10.366;2024-01-25T01:55:56;7.40;99.90
20432;DHT22;10375;49.136;10.366;2024-01-25T01:58:27;7.40;99.90
20432;DHT22;10375;49.136;10.366;2024-01-25T02:04:32;7.50;99.90
20432;DHT22;10375;49.136;10.366;2024-01-25T02:07:07;7.40;99.90
20432;DHT22;10375;49.136;10.366;2024-01-25T02:09:38;7.40;99.90
20432;DHT22;10375;49.136;10.366;2024-01-25T02:12:07;7.40;99.90
20432;DHT22;10375;49.136;10.366;2024-01-25T02:14:42;7.30;99.90
20432;DHT22;10375;49.136;10.366;2024-01-25T02:17:40;7.20;99.90
20432;DHT22;10375;49.136;10.366;2024-01-25T02:20:09;7.20;99.90
20432;DHT22;10375;49.136;10.366;2024-01-25T02:22:41;7.20;99.90
20432;DHT22;10375;49.136;10.366;2024-01-25T02:25:10;7.20;99.90
20432;DHT22;10375;49.136;10.366;2024-01-25T02:27:48;7.20;99.90
20432;DHT22;10375;49.136;10.366;2024-01-25T02:30:17;7.20;99.90
20432;DHT22;10375;49.136;10.366;2024-01-25T02:32:45;7.10;99.90
20432;DHT22;10375;49.136;10.366;2024-01-25T02:35:13;7.10;99.90
20432;DHT22;10375;49.136;10.366;2024-01-25T02:37:43;7.10;99.90
20432;DHT22;10375;49.136;10.366;2024-01-25T02:40:16;7.10;99.90
20432;DHT22;10375;49.136;10.366;2024-01-25T02:42:47;7.10;99.90
20432;DHT22;10375;49.136;10.366;2024-01-25T02:45:18;7.10;99.90
20432;DHT22;10375;49.136;10.366;2024-01-25T02:48:02;7.20;99.90
20432;DHT22;10375;49.136;10.366;2024-01-25T02:50:31;7.10;99.90
20432;DHT22;10375;49.136;10.366;2024-01-25T02:53:05;7.10;99.90
20432;DHT22;10375;49.136;10.366;2024-01-25T02:55:39;7.10;99.90
20432;DHT22;10375;49.136;10.366;2024-01-25T02:58:07;7.20;99.90
20432;DHT22;10375;49.136;10.366;2024-01-25T03:00:36;7.30;99.90
20432;DHT22;10375;49.136;10.366;2024-01-25T03:03:06;7.20;99.90
20432;DHT22;10375;49.136;10.366;2024-01-25T03:05:35;7.20;99.90
20432;DHT22;10375;49.136;10.366;2024-01-25T03:08:05;7.20;99.90
20432;DHT22;10375;49.136;10.366;2024-01-25T03:10:35;7.20;99.90
20432;DHT22;10375;49.136;10.366;2024-01-25T03:13:05;7.20;99.90
20432;DHT22;10375;49.136;10.366;2024-01-25T03:15:36;7.20;99.90
20432;DHT22;10375;49.136;10.366;2024-01-25T03:18:12;7.20;99.90
20432;DHT22;10375;49.136;10.366;2024-01-25T03:20:44;7.20;99.90
20432;DHT22;10375;49.136;10.366;2024-01-25T03:23:21;7.10;99.90
20432;DHT22;10375;49.136;10.366;2024-01-25T03:25:51;7.20;99.90
20432;DHT22;10375;49.136;10.366;2024-01-25T03:28:22;7.10;99.90
20432;DHT22;10375;49.136;10.366;2024-01-25T03:31:07;7.20;99.90
20432;DHT22;10375;49.136;10.366;2024-01-25T03:33:43;7.10;99.90
20432;DHT22;10375;49.136;10.366;2024-01-25T03:36:16;7.10;99.90
20432;DHT22;10375;49.136;10.366;2024-01-25T03:38:51;7.10;99.90
20432;DHT22;10375;49.136;10.366;2024-01-25T03:41:23;7.10;99.90
20432;DHT22;10375;49.136;10.366;2024-01-25T03:44:24;7.10;99.90
20432;DHT22;10375;49.136;10.366;2024-01-25T03:46:56;7.00;99.90
20432;DHT22;10375;49.136;10.366;2024-01-25T03:49:30;7.00;99.90
20432;DHT22;10375;49.136;10.366;2024-01-25T03:55:20;6.90;99.90
20432;DHT22;10375;49.136;10.366;2024-01-25T03:57:48;6.80;99.90
20432;DHT22;10375;49.136;10.366;2024-01-25T04:00:32;6.60;99.90
20432;DHT22;10375;49.136;10.366;2024-01-25T04:03:04;6.60;99.90
20432;DHT22;10375;49.136;10.366;2024-01-25T04:05:37;6.60;99.90
20432;DHT22;10375;49.136;10.366;2024-01-25T04:08:13;6.60;99.90
20432;DHT22;10375;49.136;10.366;2024-01-25T04:11:25;6.50;99.90
20432;DHT22;10375;49.136;10.366;2024-01-25T04:14:11;6.40;99.90
20432;DHT22;10375;49.136;10.366;2024-01-25T04:16:39;6.40;99.90
20432;DHT22;10375;49.136;10.366;2024-01-25T04:19:23;6.30;99.90
20432;DHT22;10375;49.136;10.366;2024-01-25T04:21:56;6.30;99.90
20432;DHT22;10375;49.136;10.366;2024-01-25T04:24:26;6.30;99.90
20432;DHT22;10375;49.136;10.366;2024-01-25T04:26:55;6.40;99.90
20432;DHT22;10375;49.136;10.366;2024-01-25T04:29:25;6.30;99.90
20432;DHT22;10375;49.136;10.366;2024-01-25T04:31:59;6.30;99.90
20432;DHT22;10375;49.136;10.366;2024-01-25T04:34:43;6.30;99.90
20432;DHT22;10375;49.136;10.366;2024-01-25T04:37:15;6.40;99.90
20432;DHT22;10375;49.136;10.366;2024-01-25T04:39:55;6.40;99.90
20432;DHT22;10375;49.136;10.366;2024-01-25T04:42:24;6.30;99.90
20432;DHT22;10375;49.136;10.366;2024-01-25T04:44:53;6.40;99.90
20432;DHT22;10375;49.136;10.366;2024-01-25T04:47:25;6.30;99.90
20432;DHT22;10375;49.136;10.366;2024-01-25T04:49:53;6.30;99.90
20432;DHT22;10375;49.136;10.366;2024-01-25T04:55:15;6.10;99.90
20432;DHT22;10375;49.136;10.366;2024-01-25T04:58:02;6.10;99.90
20432;DHT22;10375;49.136;10.366;2024-01-25T05:00:30;6.10;99.90
20432;DHT22;10375;49.136;10.366;2024-01-25T05:03:05;6.10;99.90
20432;DHT22;10375;49.136;10.366;2024-01-25T05:05:35;6.00;99.90
20432;DHT22;10375;49.136;10.366;2024-01-25T05:08:10;6.00;99.90
20432;DHT22;10375;49.136;10.366;2024-01-25T05:10:41;5.90;99.90
20432;DHT22;10375;49.136;10.366;2024-01-25T05:13:44;5.90;99.90
20432;DHT22;10375;49.136;10.366;2024-01-25T05:16:12;5.90;99.90
20432;DHT22;10375;49.136;10.366;2024-01-25T05:18:41;5.90;99.90
20432;DHT22;10375;49.136;10.366;2024-01-25T05:21:22;5.80;99.90
20432;DHT22;10375;49.136;10.366;2024-01-25T05:23:53;5.90;99.90
20432;DHT22;10375;49.136;10.366;2024-01-25T05:26:36;5.90;99.90
20432;DHT22;10375;49.136;10.366;2024-01-25T05:29:09;5.90;99.90
20432;DHT22;10375;49.136;10.366;2024-01-25T05:31:38;6.00;99.90
20432;DHT22;10375;49.136;10.366;2024-01-25T05:34:13;6.00;99.90
20432;DHT22;10375;49.136;10.366;2024-01-25T05:36:45;6.10;99.90
20432;DHT22;10375;49.136;10.366;2024-01-25T05:39:37;6.10;99.90
20432;DHT22;10375;49.136;10.366;2024-01-25T05:42:07;6.00;99.90
20432;DHT22;10375;49.136;10.366;2024-01-25T05:44:39;6.00;99.90
20432;DHT22;10375;49.136;10.366;2024-01-25T05:47:11;6.10;99.90
20432;DHT22;10375;49.136;10.366;2024-01-25T05:49:48;6.10;99.90
20432;DHT22;10375;49.136;10.366;2024-01-25T05:52:47;6.20;99.90
20432;DHT22;10375;49.136;10.366;2024-01-25T05:55:16;6.20;99.90
20432;DHT22;10375;49.136;10.366;2024-01-25T05:57:57;6.10;99.90
20432;DHT22;10375;49.136;10.366;2024-01-25T06:00:24;6.10;99.90
20432;DHT22;10375;49.136;10.366;2024-01-25T06:02:52;6.10;99.90
20432;DHT22;10375;49.136;10.366;2024-01-25T06:05:20;6.10;99.90
20432;DHT22;10375;49.136;10.366;2024-01-25T06:07:48;6.00;99.90
20432;DHT22;10375;49.136;10.366;2024-01-25T06:10:19;5.90;99.90
20432;DHT22;10375;49.136;10.366;2024-01-25T06:12:47;6.00;99.90
20432;DHT22;10375;49.136;10.366;2024-01-25T06:15:14;6.00;99.90
20432;DHT22;10375;49.136;10.366;2024-01-25T06:17:42;6.10;99.90
20432;DHT22;10375;49.136;10.366;2024-01-25T06:20:10;6.00;99.90
20432;DHT22;10375;49.136;10.366;2024-01-25T06:22:38;6.00;99.90
20432;DHT22;10375;49.136;10.366;2024-01-25T06:25:05;5.90;99.90
20432;DHT22;10375;49.136;10.366;2024-01-25T06:27:34;6.00;99.90
20432;DHT22;10375;49.136;10.366;2024-01-25T06:30:02;6.00;99.90
20432;DHT22;10375;49.136;10.366;2024-01-25T06:32:29;6.00;99.90
20432;DHT22;10375;49.136;10.366;2024-01-25T06:34:57;6.00;99.90
20432;DHT22;10375;49.136;10.366;2024-01-25T06:37:24;6.00;99.90
20432;DHT22;10375;49.136;10.366;2024-01-25T06:39:51;6.00;99.90
20432;DHT22;10375;49.136;10.366;2024-01-25T06:42:18;6.00;99.90
20432;DHT22;10375;49.136;10.366;2024-01-25T06:44:46;6.10;99.90
20432;DHT22;10375;49.136;10.366;2024-01-25T06:47:13;6.00;99.90
20432;DHT22;10375;49.136;10.366;2024-01-25T06:49:40;6.00;99.90
20432;DHT22;10375;49.136;10.366;2024-01-25T06:52:07;6.10;99.90
20432;DHT22;10375;49.136;10.366;2024-01-25T06:54:34;6.00;99.90
20432;DHT22;10375;49.136;10.366;2024-01-25T06:57:02;6.00;99.90
20432;DHT22;10375;49.136;10.366;2024-01-25T06:59:30;6.00;99.90
20432;DHT22;10375;49.136;10.366;2024-01-25T07:01:57;5.90;99.90
20432;DHT22;10375;49.136;10.366;2024-01-25T07:04:25;5.90;99.90
20432;DHT22;10375;49.136;10.366;2024-01-25T07:06:53;5.80;99.90
20432;DHT22;10375;49.136;10.366;2024-01-25T07:09:20;5.70;99.90
20432;DHT22;10375;49.136;10.366;2024-01-25T07:11:49;5.70;99.90
20432;DHT22;10375;49.136;10.366;2024-01-25T07:14:16;5.60;99.90
20432;DHT22;10375;49.136;10.366;2024-01-25T07:16:43;5.60;99.90
20432;DHT22;10375;49.136;10.366;2024-01-25T07:19:10;5.60;99.90
20432;DHT22;10375;49.136;10.366;2024-01-25T07:21:37;5.70;99.90
20432;DHT22;10375;49.136;10.366;2024-01-25T07:24:07;5.60;99.90
20432;DHT22;10375;49.136;10.366;2024-01-25T07:26:34;5.70;99.90
20432;DHT22;10375;49.136;10.366;2024-01-25T07:29:03;5.80;99.90
20432;DHT22;10375;49.136;10.366;2024-01-25T07:31:30;5.80;99.90
20432;DHT22;10375;49.136;10.366;2024-01-25T07:33:58;5.80;99.90
20432;DHT22;10375;49.136;10.366;2024-01-25T07:36:25;5.80;99.90
20432;DHT22;10375;49.136;10.366;2024-01-25T07:38:52;5.80;99.90
20432;DHT22;10375;49.136;10.366;2024-01-25T07:41:19;5.90;99.90
20432;DHT22;10375;49.136;10.366;2024-01-25T07:43:46;5.90;99.90
20432;DHT22;10375;49.136;10.366;2024-01-25T07:46:14;6.00;99.90
20432;DHT22;10375;49.136;10.366;2024-01-25T07:48:43;6.00;99.90
20432;DHT22;10375;49.136;10.366;2024-01-25T07:51:12;6.00;99.90
20432;DHT22;10375;49.136;10.366;2024-01-25T07:53:40;6.00;99.90
20432;DHT22;10375;49.136;10.366;2024-01-25T07:56:08;6.10;99.90
20432;DHT22;10375;49.136;10.366;2024-01-25T07:58:36;6.20;99.90
20432;DHT22;10375;49.136;10.366;2024-01-25T08:01:04;6.20;99.90
20432;DHT22;10375;49.136;10.366;2024-01-25T08:03:33;6.30;99.90
20432;DHT22;10375;49.136;10.366;2024-01-25T08:06:02;6.60;99.90
20432;DHT22;10375;49.136;10.366;2024-01-25T08:08:30;6.70;99.90
20432;DHT22;10375;49.136;10.366;2024-01-25T08:10:57;6.80;99.90
20432;DHT22;10375;49.136;10.366;2024-01-25T08:13:25;6.90;99.90
20432;DHT22;10375;49.136;10.366;2024-01-25T08:16:00;7.10;99.90
20432;DHT22;10375;49.136;10.366;2024-01-25T08:18:27;7.20;99.90
20432;DHT22;10375;49.136;10.366;2024-01-25T08:20:57;7.20;99.90
20432;DHT22;10375;49.136;10.366;2024-01-25T08:23:25;7.20;99.90
20432;DHT22;10375;49.136;10.366;2024-01-25T08:25:52;7.20;99.90
20432;DHT22;10375;49.136;10.366;2024-01-25T08:28:20;7.70;99.90
20432;DHT22;10375;49.136;10.366;2024-01-25T08:30:48;8.20;99.90
20432;DHT22;10375;49.136;10.366;2024-01-25T08:33:16;8.20;99.90
20432;DHT22;10375;49.136;10.366;2024-01-25T08:35:43;8.30;99.90
20432;DHT22;10375;49.136;10.366;2024-01-25T08:38:10;8.30;99.90
20432;DHT22;10375;49.136;10.366;2024-01-25T08:40:38;8.10;99.90
20432;DHT22;10375;49.136;10.366;2024-01-25T08:43:06;8.00;99.90
20432;DHT22;10375;49.136;10.366;2024-01-25T08:45:33;8.10;99.90
20432;DHT22;10375;49.136;10.366;2024-01-25T08:48:00;8.40;99.90
20432;DHT22;10375;49.136;10.366;2024-01-25T08:50:28;9.00;99.90
20432;DHT22;10375;49.136;10.366;2024-01-25T08:52:55;9.10;99.90
20432;DHT22;10375;49.136;10.366;2024-01-25T08:55:23;9.00;99.90
20432;DHT22;10375;49.136;10.366;2024-01-25T08:57:51;9.20;99.90
20432;DHT22;10375;49.136;10.366;2024-01-25T09:00:18;9.20;99.90
20432;DHT22;10375;49.136;10.366;2024-01-25T09:02:46;9.00;99.90
20432;DHT22;10375;49.136;10.366;2024-01-25T09:05:13;9.20;99.90
20432;DHT22;10375;49.136;10.366;2024-01-25T09:07:41;9.40;99.90
20432;DHT22;10375;49.136;10.366;2024-01-25T09:10:09;9.40;99.90
20432;DHT22;10375;49.136;10.366;2024-01-25T09:12:37;9.00;99.90
20432;DHT22;10375;49.136;10.366;2024-01-25T09:15:06;9.00;99.90
20432;DHT22;10375;49.136;10.366;2024-01-25T09:17:36;9.10;99.90
20432;DHT22;10375;49.136;10.366;2024-01-25T09:20:04;9.30;99.90
20432;DHT22;10375;49.136;10.366;2024-01-25T09:22:32;9.30;99.90
20432;DHT22;10375;49.136;10.366;2024-01-25T09:24:59;9.20;99.90
20432;DHT22;10375;49.136;10.366;2024-01-25T09:27:27;9.00;99.90
20432;DHT22;10375;49.136;10.366;2024-01-25T09:29:54;9.00;99.90
20432;DHT22;10375;49.136;10.366;2024-01-25T09:32:21;9.10;99.90
20432;DHT22;10375;49.136;10.366;2024-01-25T09:34:48;9.30;99.90
20432;DHT22;10375;49.136;10.366;2024-01-25T09:37:16;9.50;99.90
20432;DHT22;10375;49.136;10.366;2024-01-25T09:39:44;9.70;99.90
20432;DHT22;10375;49.136;10.366;2024-01-25T09:42:12;9.70;99.90
20432;DHT22;10375;49.136;10.366;2024-01-25T09:44:40;9.70;99.90
20432;DHT22;10375;49.136;10.366;2024-01-25T09:47:08;9.80;99.90
20432;DHT22;10375;49.136;10.366;2024-01-25T09:49:36;10.00;99.90
20432;DHT22;10375;49.136;10.366;2024-01-25T09:52:05;10.10;99.90
20432;DHT22;10375;49.136;10.366;2024-01-25T09:54:36;10.30;99.90
20432;DHT22;10375;49.136;10.366;2024-01-25T09:57:07;10.40;99.90
20432;DHT22;10375;49.136;10.366;2024-01-25T09:59:35;10.20;99.90
20432;DHT22;10375;49.136;10.366;2024-01-25T10:02:02;10.10;99.90
20432;DHT22;10375;49.136;10.366;2024-01-25T10:04:31;9.80;99.90
20432;DHT22;10375;49.136;10.366;2024-01-25T10:06:58;9.60;99.90
20432;DHT22;10375;49.136;10.366;2024-01-25T10:09:26;9.50;99.90
20432;DHT22;10375;49.136;10.366;2024-01-25T10:11:53;9.60;99.90
20432;DHT22;10375;49.136;10.366;2024-01-25T10:14:41;9.90;99.90
20432;DHT22;10375;49.136;10.366;2024-01-25T10:17:08;9.90;99.90
20432;DHT22;10375;49.136;10.366;2024-01-25T10:19:35;9.90;99.90
20432;DHT22;10375;49.136;10.366;2024-01-25T10:22:06;9.90;99.90
20432;DHT22;10375;49.136;10.366;2024-01-25T10:24:36;9.80;99.90
20432;DHT22;10375;49.136;10.366;2024-01-25T10:27:04;9.90;99.90
20432;DHT22;10375;49.136;10.366;2024-01-25T10:29:31;10.00;99.90
20432;DHT22;10375;49.136;10.366;2024-01-25T10:31:59;10.00;99.90
20432;DHT22;10375;49.136;10.366;2024-01-25T10:34:26;9.90;99.90
20432;DHT22;10375;49.136;10.366;2024-01-25T10:36:55;9.90;99.90
20432;DHT22;10375;49.136;10.366;2024-01-25T10:39:24;10.00;99.90
20432;DHT22;10375;49.136;10.366;2024-01-25T10:41:52;10.30;99.90
20432;DHT22;10375;49.136;10.366;2024-01-25T10:44:19;10.60;99.90
20432;DHT22;10375;49.136;10.366;2024-01-25T10:46:48;10.70;99.90
20432;DHT22;10375;49.136;10.366;2024-01-25T10:49:17;10.80;99.90
20432;DHT22;10375;49.136;10.366;2024-01-25T10:51:46;10.80;99.90
20432;DHT22;10375;49.136;10.366;2024-01-25T10:54:14;11.00;99.90
20432;DHT22;10375;49.136;10.366;2024-01-25T10:56:42;11.00;99.90
20432;DHT22;10375;49.136;10.366;2024-01-25T10:59:10;10.90;99.90
20432;DHT22;10375;49.136;10.366;2024-01-25T11:01:38;11.00;99.90
20432;DHT22;10375;49.136;10.366;2024-01-25T11:04:17;11.10;99.90
20432;DHT22;10375;49.136;10.366;2024-01-25T11:06:45;11.20;99.90
20432;DHT22;10375;49.136;10.366;2024-01-25T11:09:18;11.30;99.90
20432;DHT22;10375;49.136;10.366;2024-01-25T11:11:49;11.20;99.90
20432;DHT22;10375;49.136;10.366;2024-01-25T11:14:19;11.20;99.90
20432;DHT22;10375;49.136;10.366;2024-01-25T11:16:46;11.20;99.90
20432;DHT22;10375;49.136;10.366;2024-01-25T11:19:21;11.30;99.90
20432;DHT22;10375;49.136;10.366;2024-01-25T11:21:50;11.10;99.90
20432;DHT22;10375;49.136;10.366;2024-01-25T11:24:23;11.00;99.90
20432;DHT22;10375;49.136;10.366;2024-01-25T11:26:54;10.90;99.90
20432;DHT22;10375;49.136;10.366;2024-01-25T11:29:22;10.90;99.90
20432;DHT22;10375;49.136;10.366;2024-01-25T11:31:52;10.80;99.90
20432;DHT22;10375;49.136;10.366;2024-01-25T11:34:20;10.70;99.90
20432;DHT22;10375;49.136;10.366;2024-01-25T11:36:49;10.70;99.90
20432;DHT22;10375;49.136;10.366;2024-01-25T11:39:17;10.70;99.90
20432;DHT22;10375;49.136;10.366;2024-01-25T11:41:45;10.80;99.90
20432;DHT22;10375;49.136;10.366;2024-01-25T11:44:14;10.90;99.90
20432;DHT22;10375;49.136;10.366;2024-01-25T11:46:42;10.90;99.90
20432;DHT22;10375;49.136;10.366;2024-01-25T11:49:10;10.80;99.90
20432;DHT22;10375;49.136;10.366;2024-01-25T11:51:37;10.80;99.90
20432;DHT22;10375;49.136;10.366;2024-01-25T11:54:05;10.80;99.90
20432;DHT22;10375;49.136;10.366;2024-01-25T11:56:37;10.90;99.90
20432;DHT22;10375;49.136;10.366;2024-01-25T11:59:09;10.80;99.90
20432;DHT22;10375;49.136;10.366;2024-01-25T12:01:37;10.80;99.90
20432;DHT22;10375;49.136;10.366;2024-01-25T12:04:05;10.80;99.90
20432;DHT22;10375;49.136;10.366;2024-01-25T12:06:35;10.90;99.90
20432;DHT22;10375;49.136;10.366;2024-01-25T12:11:35;10.90;99.90
20432;DHT22;10375;49.136;10.366;2024-01-25T12:14:03;10.90;99.90
20432;DHT22;10375;49.136;10.366;2024-01-25T12:16:31;10.70;99.90
20432;DHT22;10375;49.136;10.366;2024-01-25T12:19:05;10.60;99.90
20432;DHT22;10375;49.136;10.366;2024-01-25T12:21:34;10.40;99.90
20432;DHT22;10375;49.136;10.366;2024-01-25T12:24:02;10.40;99.90
20432;DHT22;10375;49.136;10.366;2024-01-25T12:26:36;10.60;99.90
20432;DHT22;10375;49.136;10.366;2024-01-25T12:29:04;10.70;99.90
20432;DHT22;10375;49.136;10.366;2024-01-25T12:31:32;10.80;99.90
20432;DHT22;10375;49.136;10.366;2024-01-25T12:34:00;10.90;99.90
20432;DHT22;10375;49.136;10.366;2024-01-25T12:36:28;10.80;99.90
20432;DHT22;10375;49.136;10.366;2024-01-25T12:38:56;10.80;99.90
20432;DHT22;10375;49.136;10.366;2024-01-25T12:41:25;10.70;99.90
20432;DHT22;10375;49.136;10.366;2024-01-25T12:43:53;10.80;99.90
20432;DHT22;10375;49.136;10.366;2024-01-25T12:46:21;10.80;99.90
20432;DHT22;10375;49.136;10.366;2024-01-25T12:48:54;10.70;99.90
20432;DHT22;10375;49.136;10.366;2024-01-25T12:51:24;10.70;99.90
20432;DHT22;10375;49.136;10.366;2024-01-25T12:53:53;10.60;99.90
20432;DHT22;10375;49.136;10.366;2024-01-25T12:56:21;10.50;99.90
20432;DHT22;10375;49.136;10.366;2024-01-25T12:58:50;10.30;99.90
20432;DHT22;10375;49.136;10.366;2024-01-25T13:01:17;10.20;99.90
20432;DHT22;10375;49.136;10.366;2024-01-25T13:03:45;10.10;99.90
20432;DHT22;10375;49.136;10.366;2024-01-25T13:06:15;10.00;99.90
20432;DHT22;10375;49.136;10.366;2024-01-25T13:08:43;10.00;99.90
20432;DHT22;10375;49.136;10.366;2024-01-25T13:11:11;9.90;99.90
20432;DHT22;10375;49.136;10.366;2024-01-25T13:13:39;9.80;99.90
20432;DHT22;10375;49.136;10.366;2024-01-25T13:16:06;9.80;99.90
20432;DHT22;10375;49.136;10.366;2024-01-25T13:18:34;9.80;99.90
20432;DHT22;10375;49.136;10.366;2024-01-25T13:21:02;9.80;99.90
20432;DHT22;10375;49.136;10.366;2024-01-25T13:23:29;9.80;99.90
20432;DHT22;10375;49.136;10.366;2024-01-25T13:25:56;9.70;99.90
20432;DHT22;10375;49.136;10.366;2024-01-25T13:28:25;9.70;99.90
20432;DHT22;10375;49.136;10.366;2024-01-25T13:30:52;9.70;99.90
20432;DHT22;10375;49.136;10.366;2024-01-25T13:33:22;9.70;99.90
20432;DHT22;10375;49.136;10.366;2024-01-25T13:35:50;9.70;99.90
20432;DHT22;10375;49.136;10.366;2024-01-25T13:38:17;9.70;99.90
20432;DHT22;10375;49.136;10.366;2024-01-25T13:40:44;9.60;99.90
20432;DHT22;10375;49.136;10.366;2024-01-25T13:43:11;9.70;99.90
20432;DHT22;10375;49.136;10.366;2024-01-25T13:45:39;9.70;99.90
20432;DHT22;10375;49.136;10.366;2024-01-25T13:48:06;9.60;99.90
20432;DHT22;10375;49.136;10.366;2024-01-25T13:50:33;9.60;99.90
20432;DHT22;10375;49.136;10.366;2024-01-25T13:53:01;9.60;99.90
20432;DHT22;10375;49.136;10.366;2024-01-25T13:55:28;9.60;99.90
20432;DHT22;10375;49.136;10.366;2024-01-25T13:57:55;9.60;99.90
20432;DHT22;10375;49.136;10.366;2024-01-25T14:00:22;9.60;99.90
20432;DHT22;10375;49.136;10.366;2024-01-25T14:02:49;9.50;99.90
20432;DHT22;10375;49.136;10.366;2024-01-25T14:05:17;9.50;99.90
20432;DHT22;10375;49.136;10.366;2024-01-25T14:07:44;9.50;99.90
20432;DHT22;10375;49.136;10.366;2024-01-25T14:10:11;9.40;99.90
20432;DHT22;10375;49.136;10.366;2024-01-25T14:12:39;9.40;99.90
20432;DHT22;10375;49.136;10.366;2024-01-25T14:15:07;9.20;99.90
20432;DHT22;10375;49.136;10.366;2024-01-25T14:17:34;9.20;99.90
20432;DHT22;10375;49.136;10.366;2024-01-25T14:20:04;9.10;99.90
20432;DHT22;10375;49.136;10.366;2024-01-25T14:22:32;9.10;99.90
20432;DHT22;10375;49.136;10.366;2024-01-25T14:25:03;9.00;99.90
20432;DHT22;10375;49.136;10.366;2024-01-25T14:27:30;9.00;99.90
20432;DHT22;10375;49.136;10.366;2024-01-25T14:29:58;9.00;99.90
20432;DHT22;10375;49.136;10.366;2024-01-25T14:32:27;8.90;99.90
20432;DHT22;10375;49.136;10.366;2024-01-25T14:34:54;8.80;99.90
20432;DHT22;10375;49.136;10.366;2024-01-25T14:37:21;8.80;99.90
20432;DHT22;10375;49.136;10.366;2024-01-25T14:39:49;8.70;99.90
20432;DHT22;10375;49.136;10.366;2024-01-25T14:42:36;8.60;99.90
20432;DHT22;10375;49.136;10.366;2024-01-25T14:45:05;8.60;99.90
20432;DHT22;10375;49.136;10.366;2024-01-25T14:47:32;8.50;99.90
20432;DHT22;10375;49.136;10.366;2024-01-25T14:50:00;8.50;99.90
20432;DHT22;10375;49.136;10.366;2024-01-25T14:52:27;8.40;99.90
20432;DHT22;10375;49.136;10.366;2024-01-25T14:54:54;8.40;99.90
20432;DHT22;10375;49.136;10.366;2024-01-25T14:57:22;8.30;99.90
20432;DHT22;10375;49.136;10.366;2024-01-25T14:59:49;8.30;99.90
20432;DHT22;10375;49.136;10.366;2024-01-25T15:02:17;8.20;99.90
20432;DHT22;10375;49.136;10.366;2024-01-25T15:04:45;8.20;99.90
20432;DHT22;10375;49.136;10.366;2024-01-25T15:07:12;8.10;99.90
20432;DHT22;10375;49.136;10.366;2024-01-25T15:09:41;8.00;99.90
20432;DHT22;10375;49.136;10.366;2024-01-25T15:12:08;8.00;99.90
20432;DHT22;10375;49.136;10.366;2024-01-25T15:14:35;7.90;99.90
20432;DHT22;10375;49.136;10.366;2024-01-25T15:17:03;7.90;99.90
20432;DHT22;10375;49.136;10.366;2024-01-25T15:19:30;7.80;99.90
20432;DHT22;10375;49.136;10.366;2024-01-25T15:21:58;7.70;99.90
20432;DHT22;10375;49.136;10.366;2024-01-25T15:24:25;7.70;99.90
20432;DHT22;10375;49.136;10.366;2024-01-25T15:26:53;7.70;99.90
20432;DHT22;10375;49.136;10.366;2024-01-25T15:29:20;7.60;99.90
20432;DHT22;10375;49.136;10.366;2024-01-25T15:31:47;7.50;99.90
20432;DHT22;10375;49.136;10.366;2024-01-25T15:34:15;7.50;99.90
20432;DHT22;10375;49.136;10.366;2024-01-25T15:36:42;7.40;99.90
20432;DHT22;10375;49.136;10.366;2024-01-25T15:39:11;7.40;99.90
20432;DHT22;10375;49.136;10.366;2024-01-25T15:41:38;7.30;99.90
20432;DHT22;10375;49.136;10.366;2024-01-25T15:44:05;7.30;99.90
20432;DHT22;10375;49.136;10.366;2024-01-25T15:46:32;7.20;99.90
20432;DHT22;10375;49.136;10.366;2024-01-25T15:49:01;7.20;99.90
20432;DHT22;10375;49.136;10.366;2024-01-25T15:51:29;7.10;99.90
20432;DHT22;10375;49.136;10.366;2024-01-25T15:53:56;7.10;99.90
20432;DHT22;10375;49.136;10.366;2024-01-25T15:56:23;7.00;99.90